Terminal Aerodrome Forecast
Issued by NWS Louisville, KY

Home | Current Version | Previous Version | Text Only | Print | Product List | Glossary On
Versions: 1 2 3 4 5 6 7 8 9 10 11 12 13 14 15 16
000
FTUS43 KLMK 151700
TAFLEX
TAF
KLEX 151726Z 1518/1618 13008KT P6SM SCT020 BKN150
     FM152200 16010KT 6SM -SHRA BR BKN035
      TEMPO 1522/1602 4SM -SHRA BR BKN025
     FM160200 18012KT P6SM VCSH BKN025
     FM160800 20009KT P6SM VCSH BKN018
     FM161200 23012G18KT P6SM VCSH SCT009 BKN018=

USA.gov is the U.S. government's official web portal to all federal, state and local government web resources and services.